Time;durP1;ratioP1;P1;durP2;ratioP2;P2;SDS_P1;SDS_P2;PMS_P1;PMS_P2;Temp;Humidity;BMP_temperature;BMP_pressure;BME280_temperature;BME280_humidity;BME280_pressure;Samples;Min_cycle;Max_cycle;Signal;HPM_P1;HPM_P2
2022/03/23 00:01:34;;;;;;;;;;;6.60;47.40;;;;;;5065453;27;87072;-51
2022/03/23 00:07:02;;;;;;;;;;;6.60;47.60;;;;;;5068304;27;86820;-53
2022/03/23 00:12:31;;;;;;;;;;;6.60;47.30;;;;;;5065555;27;86796;-51
2022/03/23 00:18:00;;;;;;;;;;;6.60;47.40;;;;;;5064781;27;87779;-51
2022/03/23 00:23:28;;;;;;;;;;;6.60;47.50;;;;;;5065028;27;86929;-51
2022/03/23 00:28:57;;;;;;;;;;;6.50;47.90;;;;;;5065388;27;86718;-51
2022/03/23 00:34:26;;;;;;;;;;;6.50;47.60;;;;;;5065294;27;86678;-52
2022/03/23 00:39:54;;;;;;;;;;;6.50;47.30;;;;;;5065229;27;86820;-53
2022/03/23 00:45:24;;;;;;;;;;;6.50;47.30;;;;;;5061519;27;87858;-52
2022/03/23 00:50:53;;;;;;;;;;;6.50;47.70;;;;;;5065157;27;86780;-51
2022/03/23 00:56:21;;;;;;;;;;;6.50;48.00;;;;;;5067799;27;86745;-51
2022/03/23 01:01:50;;;;;;;;;;;6.50;48.00;;;;;;5064855;27;86731;-51
2022/03/23 01:07:18;;;;;;;;;;;6.50;48.10;;;;;;5064380;27;86949;-51
2022/03/23 01:12:47;;;;;;;;;;;6.40;48.00;;;;;;5064102;27;87653;-51
2022/03/23 01:18:16;;;;;;;;;;;6.50;48.50;;;;;;5064739;27;86677;-54
2022/03/23 01:23:45;;;;;;;;;;;6.40;47.00;;;;;;5064500;27;86645;-55
2022/03/23 01:29:14;;;;;;;;;;;6.40;48.20;;;;;;5064058;27;86965;-52
2022/03/23 01:34:42;;;;;;;;;;;6.40;48.00;;;;;;5064448;27;86884;-53
2022/03/23 01:40:11;;;;;;;;;;;6.40;48.50;;;;;;5063698;27;87695;-50
2022/03/23 01:45:40;;;;;;;;;;;6.40;48.90;;;;;;5061662;27;87049;-51
2022/03/23 01:51:10;;;;;;;;;;;6.40;49.40;;;;;;5067395;27;86976;-51
2022/03/23 01:56:40;;;;;;;;;;;6.40;49.60;;;;;;5067836;27;86835;-50
2022/03/23 02:02:08;;;;;;;;;;;6.40;49.20;;;;;;5067667;27;86754;-51
2022/03/23 02:07:37;;;;;;;;;;;6.30;49.40;;;;;;5069598;27;87660;-52
2022/03/23 02:13:06;;;;;;;;;;;6.30;49.60;;;;;;5067127;27;86631;-52
2022/03/23 02:18:35;;;;;;;;;;;6.30;49.30;;;;;;5067447;27;86732;-50
2022/03/23 02:24:04;;;;;;;;;;;6.30;49.70;;;;;;5067269;27;86850;-51
2022/03/23 02:29:32;;;;;;;;;;;6.30;49.80;;;;;;5066834;27;87003;-51
2022/03/23 02:35:01;;;;;;;;;;;6.30;49.90;;;;;;5066199;27;87705;-51
2022/03/23 02:40:30;;;;;;;;;;;6.30;50.00;;;;;;5067061;27;86721;-51
2022/03/23 02:45:58;;;;;;;;;;;6.20;49.70;;;;;;5064450;27;87006;-54
2022/03/23 02:51:26;;;;;;;;;;;6.20;50.10;;;;;;5066586;27;87022;-51
2022/03/23 03:02:43;;;;;;;;;;;6.20;50.50;;;;;;5066157;27;87982;-50
2022/03/23 03:13:59;;;;;;;;;;;6.10;50.30;;;;;;5066109;27;86984;-53
2022/03/23 03:19:28;;;;;;;;;;;6.10;50.80;;;;;;5066519;27;86767;-54
2022/03/23 03:24:56;;;;;;;;;;;6.10;50.80;;;;;;5066392;27;86732;-51
2022/03/23 03:30:25;;;;;;;;;;;6.10;51.00;;;;;;5065688;27;87648;-51
2022/03/23 03:35:53;;;;;;;;;;;6.10;51.10;;;;;;5065811;27;87106;-52
2022/03/23 03:41:22;;;;;;;;;;;6.10;50.90;;;;;;5066154;27;86834;-53
2022/03/23 03:46:50;;;;;;;;;;;6.10;51.20;;;;;;5059419;27;88440;-52
2022/03/23 03:52:19;;;;;;;;;;;6.00;51.20;;;;;;5066008;27;86705;-54
2022/03/23 03:57:47;;;;;;;;;;;6.00;51.50;;;;;;5064900;27;87982;-53
2022/03/23 04:03:15;;;;;;;;;;;6.00;51.40;;;;;;5065835;27;86830;-51
2022/03/23 04:08:44;;;;;;;;;;;6.00;51.50;;;;;;5068595;27;86730;-51
2022/03/23 04:14:12;;;;;;;;;;;5.90;51.50;;;;;;5065130;27;86729;-52
2022/03/23 04:19:41;;;;;;;;;;;6.00;51.20;;;;;;5064559;27;86965;-52
2022/03/23 04:25:12;;;;;;;;;;;5.90;51.60;;;;;;5065657;27;87751;-53
2022/03/23 04:30:41;;;;;;;;;;;5.90;51.10;;;;;;5064827;27;86628;-51
2022/03/23 04:36:13;;;;;;;;;;;5.80;51.60;;;;;;5064748;27;86722;-54
2022/03/23 04:41:42;;;;;;;;;;;5.80;51.80;;;;;;5064469;27;87019;-52
2022/03/23 04:47:11;;;;;;;;;;;5.80;52.00;;;;;;5061407;27;86755;-53
2022/03/23 04:52:41;;;;;;;;;;;5.80;52.00;;;;;;5063835;27;87745;-54
2022/03/23 04:58:10;;;;;;;;;;;5.80;52.10;;;;;;5067122;27;86770;-53
2022/03/23 05:03:38;;;;;;;;;;;5.80;52.10;;;;;;5064170;27;86930;-52
2022/03/23 05:09:07;;;;;;;;;;;5.80;52.20;;;;;;5064493;27;86758;-52
2022/03/23 05:14:36;;;;;;;;;;;5.70;52.40;;;;;;5065737;27;86880;-51
2022/03/23 05:20:04;;;;;;;;;;;5.80;52.40;;;;;;5062994;27;87627;-54
2022/03/23 05:25:33;;;;;;;;;;;5.80;52.50;;;;;;5063459;27;86910;-50
2022/03/23 05:31:02;;;;;;;;;;;5.70;52.40;;;;;;5063816;27;86683;-52
2022/03/23 05:36:30;;;;;;;;;;;5.70;52.60;;;;;;5063928;27;86723;-53
2022/03/23 05:41:59;;;;;;;;;;;5.70;52.60;;;;;;5063462;27;86929;-52
2022/03/23 05:47:27;;;;;;;;;;;5.70;52.50;;;;;;5063212;27;87865;-50
2022/03/23 05:52:56;;;;;;;;;;;5.70;52.50;;;;;;5063651;27;86648;-52
2022/03/23 05:58:25;;;;;;;;;;;5.70;52.50;;;;;;5063931;27;86795;-50
2022/03/23 06:03:53;;;;;;;;;;;5.70;52.60;;;;;;5063612;27;86947;-50
2022/03/23 06:09:21;;;;;;;;;;;5.70;52.60;;;;;;5066510;27;86870;-50
2022/03/23 06:14:51;;;;;;;;;;;5.70;52.60;;;;;;5063251;27;87594;-50
2022/03/23 06:20:19;;;;;;;;;;;5.70;52.60;;;;;;5063832;27;86733;-50
2022/03/23 06:25:47;;;;;;;;;;;5.70;52.60;;;;;;5063363;27;87006;-50
2022/03/23 06:31:16;;;;;;;;;;;5.70;52.70;;;;;;5065425;27;86763;-50
2022/03/23 06:36:44;;;;;;;;;;;5.70;52.30;;;;;;5070001;27;86780;-51
2022/03/23 06:42:13;;;;;;;;;;;5.70;52.80;;;;;;5066388;27;87760;-50
2022/03/23 06:47:42;;;;;;;;;;;5.70;52.80;;;;;;5064448;27;86782;-52
2022/03/23 06:53:10;;;;;;;;;;;5.70;52.90;;;;;;5066919;27;86796;-50
2022/03/23 06:58:39;;;;;;;;;;;5.70;52.70;;;;;;5069722;27;86744;-51
2022/03/23 07:04:07;;;;;;;;;;;5.70;52.30;;;;;;5066741;27;86802;-51
2022/03/23 07:09:38;;;;;;;;;;;5.70;52.50;;;;;;5065544;27;87934;-50
2022/03/23 07:15:06;;;;;;;;;;;5.70;52.70;;;;;;5066672;27;86751;-51
2022/03/23 07:20:35;;;;;;;;;;;5.70;52.80;;;;;;5066494;27;86912;-51
2022/03/23 07:26:04;;;;;;;;;;;5.70;52.50;;;;;;5066295;27;86784;-51
2022/03/23 07:31:33;;;;;;;;;;;5.70;52.80;;;;;;5065911;27;87022;-55
2022/03/23 07:37:02;;;;;;;;;;;5.70;52.90;;;;;;5065699;27;87772;-52
2022/03/23 07:42:31;;;;;;;;;;;5.70;53.00;;;;;;5066108;27;86730;-50
2022/03/23 07:47:59;;;;;;;;;;;5.70;52.90;;;;;;5065622;27;87063;-50
2022/03/23 07:53:27;;;;;;;;;;;5.70;53.10;;;;;;5065639;27;86949;-54
2022/03/23 07:58:56;;;;;;;;;;;5.80;53.20;;;;;;5065939;27;86694;-50
2022/03/23 08:04:24;;;;;;;;;;;5.70;52.80;;;;;;5065162;27;87697;-50
2022/03/23 08:09:52;;;;;;;;;;;5.70;53.10;;;;;;5066477;27;86817;-52
2022/03/23 08:15:21;;;;;;;;;;;5.80;53.20;;;;;;5065181;27;87149;-53
2022/03/23 08:20:50;;;;;;;;;;;5.80;53.00;;;;;;5065516;27;86757;-54
2022/03/23 08:26:18;;;;;;;;;;;5.80;53.00;;;;;;5065367;27;86793;-50
2022/03/23 08:31:47;;;;;;;;;;;5.80;53.30;;;;;;5064279;27;87987;-50
2022/03/23 08:37:15;;;;;;;;;;;5.80;53.10;;;;;;5064912;27;86598;-50
2022/03/23 08:42:44;;;;;;;;;;;5.80;53.00;;;;;;5065098;27;86811;-50
2022/03/23 08:48:12;;;;;;;;;;;5.80;53.20;;;;;;5063382;27;86796;-50
2022/03/23 08:53:42;;;;;;;;;;;5.80;53.20;;;;;;5064531;27;87037;-50
2022/03/23 08:59:11;;;;;;;;;;;5.90;53.30;;;;;;5066917;27;87774;-51
2022/03/23 09:04:39;;;;;;;;;;;5.90;53.40;;;;;;5064904;27;86791;-50
2022/03/23 09:10:09;;;;;;;;;;;5.90;53.30;;;;;;5064812;27;86792;-51
2022/03/23 09:15:37;;;;;;;;;;;5.90;53.30;;;;;;5064362;27;86979;-50
2022/03/23 09:21:06;;;;;;;;;;;5.90;53.30;;;;;;5064571;27;86815;-50
2022/03/23 09:26:34;;;;;;;;;;;6.00;53.60;;;;;;5063792;27;87729;-50
2022/03/23 09:32:09;;;;;;;;;;;6.00;53.50;;;;;;5064421;27;86750;-50
2022/03/23 09:37:50;;;;;;;;;;;6.00;53.50;;;;;;5065904;27;87034;-50
2022/03/23 13:01:19;;;;;;;;;;;7.10;49.90;;;;;;5032477;27;87535;-51
2022/03/23 13:03:44;;;;;;;;;;;7.20;50.40;;;;;;5026794;28;87310;-52
2022/03/23 13:06:11;;;;;;;;;;;7.20;51.10;;;;;;5026078;28;88631;-52
2022/03/23 13:08:49;;;;;;;;;;;7.20;50.80;;;;;;5028253;28;87873;-51
2022/03/23 13:11:18;;;;;;;;;;;7.30;51.70;;;;;;5026046;28;88411;-53
2022/03/23 13:13:44;;;;;;;;;;;7.30;49.70;;;;;;5025942;28;86816;-51
2022/03/23 13:16:12;;;;;;;;;;;7.30;49.60;;;;;;5026104;28;88071;-52
2022/03/23 13:18:38;;;;;;;;;;;7.30;50.10;;;;;;5025827;28;86769;-50
2022/03/23 13:21:08;;;;;;;;;;;7.30;49.60;;;;;;5026084;28;86853;-51
2022/03/23 13:23:34;;;;;;;;;;;7.30;50.50;;;;;;5025939;28;87827;-54
2022/03/23 13:26:03;;;;;;;;;;;7.40;49.90;;;;;;5025432;28;86998;-51
2022/03/23 13:28:29;;;;;;;;;;;7.40;49.20;;;;;;5025779;28;86904;-51
2022/03/23 13:30:58;;;;;;;;;;;7.40;50.10;;;;;;5028411;28;87988;-51
2022/03/23 13:33:26;;;;;;;;;;;7.50;49.20;;;;;;5025195;28;87774;-54
2022/03/23 13:35:54;;;;;;;;;;;7.50;50.10;;;;;;5025677;28;88715;-52
2022/03/23 13:38:21;;;;;;;;;;;7.50;50.90;;;;;;5022779;28;88684;-51
2022/03/23 13:43:34;;;;;;;;;;;7.60;50.40;;;;;;5025328;28;86850;-50
2022/03/23 13:46:01;;;;;;;;;;;7.60;49.40;;;;;;5023125;28;88004;-50
2022/03/23 13:48:31;;;;;;;;;;;7.60;50.10;;;;;;5025463;28;87335;-50
2022/03/23 13:50:57;;;;;;;;;;;7.60;49.60;;;;;;5028864;28;86988;-50
2022/03/23 13:53:23;;;;;;;;;;;7.60;50.40;;;;;;5023397;28;86979;-50
2022/03/23 13:55:50;;;;;;;;;;;7.70;50.80;;;;;;5023313;28;88144;-50
2022/03/23 13:58:16;;;;;;;;;;;7.60;49.70;;;;;;5024756;28;88692;-50
2022/03/23 14:00:43;;;;;;;;;;;7.70;50.00;;;;;;5025634;28;86861;-50
2022/03/23 14:03:08;;;;;;;;;;;7.70;50.60;;;;;;5025157;28;87941;-50
2022/03/23 14:05:35;;;;;;;;;;;7.70;51.50;;;;;;5024626;28;88693;-53
2022/03/23 14:08:00;;;;;;;;;;;7.80;51.00;;;;;;5025111;28;86942;-51
2022/03/23 14:10:38;;;;;;;;;;;7.80;50.60;;;;;;5025255;28;87096;-51
2022/03/23 14:13:08;;;;;;;;;;;7.90;50.50;;;;;;5027773;28;88580;-54
2022/03/23 14:15:47;;;;;;;;;;;7.90;50.20;;;;;;5023369;28;87244;-53
2022/03/23 14:18:12;;;;;;;;;;;7.90;49.80;;;;;;5025057;28;87375;-52
2022/03/23 14:20:50;;;;;;;;;;;7.90;50.10;;;;;;5025267;28;86854;-50
2022/03/23 14:23:16;;;;;;;;;;;8.00;50.10;;;;;;5022498;28;88090;-50
2022/03/23 14:25:42;;;;;;;;;;;8.00;50.00;;;;;;5024729;28;87653;-50
2022/03/23 14:28:21;;;;;;;;;;;8.00;49.80;;;;;;5025349;28;87186;-51
2022/03/23 14:30:55;;;;;;;;;;;8.00;50.20;;;;;;5025407;28;86901;-50
2022/03/23 14:33:20;;;;;;;;;;;8.00;49.10;;;;;;5024637;28;88620;-52
2022/03/23 14:35:46;;;;;;;;;;;8.00;49.80;;;;;;5027847;28;86874;-53
2022/03/23 14:38:13;;;;;;;;;;;8.10;49.70;;;;;;5024434;28;88673;-51
2022/03/23 14:41:10;;;;;;;;;;;8.10;49.40;;;;;;5022963;28;86235;-53
2022/03/23 14:43:37;;;;;;;;;;;8.10;50.10;;;;;;5022492;28;87001;-53
2022/03/23 14:46:23;;;;;;;;;;;8.20;49.70;;;;;;5024546;28;87622;-52
2022/03/23 14:49:03;;;;;;;;;;;8.20;49.60;;;;;;5024154;28;87817;-51
2022/03/23 14:51:29;;;;;;;;;;;8.30;49.50;;;;;;5024862;28;88750;-54
2022/03/23 14:53:55;;;;;;;;;;;8.30;49.20;;;;;;5024648;28;87420;-51
2022/03/23 14:56:20;;;;;;;;;;;8.30;49.50;;;;;;5028700;28;86876;-52
2022/03/23 14:58:46;;;;;;;;;;;8.30;49.50;;;;;;5031193;28;87820;-53
2022/03/23 15:01:12;;;;;;;;;;;8.30;49.20;;;;;;5027756;28;86847;-52
2022/03/23 15:03:38;;;;;;;;;;;8.30;48.90;;;;;;5028638;28;87322;-51
2022/03/23 15:14:17;;;;;;;;;;;8.50;49.40;;;;;;5027631;28;88186;-52
2022/03/23 15:16:43;;;;;;;;;;;8.50;48.90;;;;;;5028337;28;87057;-51
2022/03/23 15:19:11;;;;;;;;;;;8.40;49.40;;;;;;5028356;28;87785;-52
2022/03/23 15:21:37;;;;;;;;;;;8.50;48.90;;;;;;5030211;28;88458;-55
2022/03/23 15:24:03;;;;;;;;;;;8.50;48.70;;;;;;5028210;28;86862;-56
2022/03/23 15:26:28;;;;;;;;;;;8.50;49.40;;;;;;5027263;28;88920;-55
2022/03/23 15:28:55;;;;;;;;;;;8.50;49.00;;;;;;5027679;28;86876;-51
2022/03/23 15:31:20;;;;;;;;;;;8.60;48.90;;;;;;5028178;28;87793;-56
2022/03/23 15:33:51;;;;;;;;;;;8.60;48.60;;;;;;5027302;28;88616;-51
2022/03/23 15:36:17;;;;;;;;;;;8.60;48.40;;;;;;5027610;28;86873;-53
2022/03/23 15:38:43;;;;;;;;;;;8.60;48.80;;;;;;5026776;28;87812;-53
2022/03/23 15:41:12;;;;;;;;;;;8.70;48.30;;;;;;5027336;28;87493;-55
2022/03/23 15:43:38;;;;;;;;;;;8.70;49.00;;;;;;5012377;28;87334;-53
2022/03/23 15:46:04;;;;;;;;;;;8.60;48.20;;;;;;5026805;28;88444;-55
2022/03/23 15:48:31;;;;;;;;;;;8.70;48.80;;;;;;5027647;28;86877;-55
2022/03/23 15:50:56;;;;;;;;;;;8.70;48.30;;;;;;5027469;28;88118;-52
2022/03/23 15:53:22;;;;;;;;;;;8.70;49.10;;;;;;5027197;28;86870;-51
2022/03/23 15:55:49;;;;;;;;;;;8.70;48.90;;;;;;5027825;28;86121;-52
2022/03/23 15:58:14;;;;;;;;;;;8.80;49.20;;;;;;5027161;28;87448;-56
2022/03/23 16:00:40;;;;;;;;;;;8.80;48.60;;;;;;5026785;28;88552;-55
2022/03/23 16:03:06;;;;;;;;;;;8.80;48.90;;;;;;5029002;28;88036;-52
2022/03/23 16:05:32;;;;;;;;;;;8.80;47.80;;;;;;5025458;28;88457;-55
2022/03/23 16:07:57;;;;;;;;;;;8.80;48.50;;;;;;5026700;28;86886;-51
2022/03/23 16:10:23;;;;;;;;;;;8.80;48.40;;;;;;5027277;28;86869;-54
2022/03/23 16:12:49;;;;;;;;;;;8.70;48.50;;;;;;5026765;28;88438;-55
2022/03/23 16:15:15;;;;;;;;;;;8.80;48.30;;;;;;5027437;28;87147;-51
2022/03/23 16:17:40;;;;;;;;;;;8.80;47.90;;;;;;5027045;28;87137;-53
2022/03/23 16:20:11;;;;;;;;;;;8.80;47.80;;;;;;5027206;28;87148;-53
2022/03/23 16:22:37;;;;;;;;;;;8.70;48.20;;;;;;5026757;28;86834;-56
2022/03/23 16:25:07;;;;;;;;;;;8.80;48.50;;;;;;5027018;28;88100;-52
2022/03/23 16:27:35;;;;;;;;;;;8.80;48.40;;;;;;5008328;28;87871;-55
2022/03/23 16:30:01;;;;;;;;;;;8.80;48.80;;;;;;5026763;28;89045;-52
2022/03/23 16:32:29;;;;;;;;;;;8.80;49.40;;;;;;5026542;28;87687;-54
2022/03/23 16:34:55;;;;;;;;;;;8.70;48.90;;;;;;5026764;28;87269;-54
2022/03/23 16:37:21;;;;;;;;;;;8.80;49.10;;;;;;5026757;28;87244;-54
2022/03/23 16:39:47;;;;;;;;;;;8.70;49.20;;;;;;5026237;28;88401;-54
2022/03/23 16:42:12;;;;;;;;;;;8.70;49.40;;;;;;5026561;28;86896;-52
2022/03/23 16:44:38;;;;;;;;;;;8.70;49.70;;;;;;5027135;28;86764;-54
2022/03/23 16:47:04;;;;;;;;;;;8.60;49.40;;;;;;5029187;28;87423;-52
2022/03/23 16:49:30;;;;;;;;;;;8.60;49.40;;;;;;5026767;28;86844;-55
2022/03/23 16:51:55;;;;;;;;;;;8.60;49.40;;;;;;5025539;28;88624;-53
2022/03/23 16:54:24;;;;;;;;;;;8.60;49.40;;;;;;5026180;28;86885;-55
2022/03/23 16:56:50;;;;;;;;;;;8.60;49.50;;;;;;5026456;28;87300;-53
2022/03/23 16:59:21;;;;;;;;;;;8.60;49.40;;;;;;5025960;28;87698;-52
2022/03/23 17:01:48;;;;;;;;;;;8.60;49.60;;;;;;5025068;28;86952;-51
2022/03/23 17:12:26;;;;;;;;;;;8.50;48.90;;;;;;5025887;28;86862;-53
2022/03/23 17:14:52;;;;;;;;;;;8.50;49.00;;;;;;5025952;28;86853;-53
2022/03/23 17:17:18;;;;;;;;;;;8.50;49.10;;;;;;5024925;28;88160;-51
2022/03/23 17:19:43;;;;;;;;;;;8.50;49.50;;;;;;5025003;28;86906;-52
2022/03/23 17:22:09;;;;;;;;;;;8.60;49.50;;;;;;5025738;28;86919;-52
2022/03/23 17:24:35;;;;;;;;;;;8.50;49.20;;;;;;5025867;28;87690;-52
2022/03/23 17:27:01;;;;;;;;;;;8.50;49.00;;;;;;5025465;28;88343;-54
2022/03/23 17:29:27;;;;;;;;;;;8.50;49.50;;;;;;5025694;28;86829;-53
2022/03/23 17:31:53;;;;;;;;;;;8.50;49.60;;;;;;5027257;28;86952;-54
2022/03/23 17:34:18;;;;;;;;;;;8.50;49.20;;;;;;5026423;28;86162;-53
2022/03/23 17:36:44;;;;;;;;;;;8.50;49.40;;;;;;5025960;28;86849;-52
2022/03/23 17:39:09;;;;;;;;;;;8.50;49.90;;;;;;5025295;28;88532;-54
2022/03/23 17:41:36;;;;;;;;;;;8.50;49.60;;;;;;5024840;28;87828;-55
2022/03/23 17:44:03;;;;;;;;;;;8.50;49.70;;;;;;5025512;28;88735;-52
2022/03/23 17:46:29;;;;;;;;;;;8.50;49.60;;;;;;5025066;28;87523;-52
2022/03/23 17:48:54;;;;;;;;;;;8.50;50.00;;;;;;5025891;28;86888;-55
2022/03/23 17:51:20;;;;;;;;;;;8.50;50.10;;;;;;5028308;28;87157;-52
2022/03/23 17:53:46;;;;;;;;;;;8.50;50.20;;;;;;5025429;28;86848;-52
2022/03/23 17:56:13;;;;;;;;;;;8.50;50.70;;;;;;5025499;28;86991;-53
2022/03/23 17:58:38;;;;;;;;;;;8.50;50.80;;;;;;5025531;28;86710;-55
2022/03/23 18:01:04;;;;;;;;;;;8.50;51.00;;;;;;5025252;28;87029;-51
2022/03/23 18:03:30;;;;;;;;;;;8.50;51.10;;;;;;5025468;28;87731;-53
2022/03/23 18:05:56;;;;;;;;;;;8.50;51.40;;;;;;5024158;28;89444;-52
2022/03/23 18:08:23;;;;;;;;;;;8.50;51.40;;;;;;5025257;28;86885;-53
2022/03/23 18:10:49;;;;;;;;;;;8.50;51.60;;;;;;5025158;28;87665;-55
2022/03/23 18:13:15;;;;;;;;;;;8.50;51.70;;;;;;5027794;28;88409;-52
2022/03/23 18:15:45;;;;;;;;;;;8.50;51.80;;;;;;5025217;28;88008;-52
2022/03/23 18:18:12;;;;;;;;;;;8.50;51.80;;;;;;5024780;28;88430;-53
2022/03/23 18:20:37;;;;;;;;;;;8.50;51.90;;;;;;5025272;28;87052;-51
2022/03/23 18:23:04;;;;;;;;;;;8.50;52.10;;;;;;5025933;28;86775;-51
2022/03/23 18:25:30;;;;;;;;;;;8.50;52.10;;;;;;5022105;28;88647;-55
2022/03/23 18:27:56;;;;;;;;;;;8.40;52.20;;;;;;5025029;28;86932;-52
2022/03/23 18:30:22;;;;;;;;;;;8.50;52.90;;;;;;5027073;28;87787;-54
2022/03/23 18:32:47;;;;;;;;;;;8.50;52.40;;;;;;5027954;28;88516;-54
2022/03/23 18:35:13;;;;;;;;;;;8.50;52.40;;;;;;5031203;28;86847;-52
2022/03/23 18:37:39;;;;;;;;;;;8.50;52.50;;;;;;5027352;28;88588;-52
2022/03/23 18:40:05;;;;;;;;;;;8.50;52.60;;;;;;5028401;28;87088;-54
2022/03/23 18:42:32;;;;;;;;;;;8.50;52.50;;;;;;5028844;28;87074;-53
2022/03/23 18:44:57;;;;;;;;;;;8.50;52.40;;;;;;5027922;28;88553;-51
2022/03/23 18:47:23;;;;;;;;;;;8.50;52.70;;;;;;5028641;28;87297;-54
2022/03/23 18:49:49;;;;;;;;;;;8.40;52.50;;;;;;5028336;28;87087;-56
2022/03/23 18:52:14;;;;;;;;;;;8.40;52.60;;;;;;5028002;28;88486;-52
2022/03/23 18:54:40;;;;;;;;;;;8.40;52.60;;;;;;5027750;28;87809;-52
2022/03/23 18:57:07;;;;;;;;;;;8.50;52.80;;;;;;5029910;28;88919;-51
2022/03/23 18:59:32;;;;;;;;;;;8.40;52.80;;;;;;5028048;28;86862;-53
2022/03/23 19:01:58;;;;;;;;;;;8.40;52.80;;;;;;5027898;28;86934;-51
2022/03/23 19:04:23;;;;;;;;;;;8.40;52.90;;;;;;5027808;28;88968;-55
2022/03/23 19:06:49;;;;;;;;;;;8.40;53.00;;;;;;5027799;28;86837;-53
2022/03/23 19:09:14;;;;;;;;;;;8.40;52.90;;;;;;5027933;28;87226;-51
2022/03/23 19:11:40;;;;;;;;;;;8.40;52.90;;;;;;5028326;28;86516;-52
2022/03/23 19:14:07;;;;;;;;;;;8.40;52.90;;;;;;5027923;28;86814;-52
2022/03/23 19:16:33;;;;;;;;;;;8.40;52.90;;;;;;5027923;28;86909;-52
2022/03/23 19:18:59;;;;;;;;;;;8.40;52.90;;;;;;5029778;28;89529;-54
2022/03/23 19:21:24;;;;;;;;;;;8.40;53.10;;;;;;5027838;28;88021;-54
2022/03/23 19:23:50;;;;;;;;;;;8.40;53.00;;;;;;5025814;28;88684;-54
2022/03/23 19:26:16;;;;;;;;;;;8.40;53.00;;;;;;5025023;28;87042;-52
2022/03/23 19:28:43;;;;;;;;;;;8.40;53.10;;;;;;5027733;28;87092;-51
2022/03/23 19:31:09;;;;;;;;;;;8.40;53.00;;;;;;5027162;28;87654;-52
2022/03/23 19:33:36;;;;;;;;;;;8.40;53.10;;;;;;5027502;28;86920;-53
2022/03/23 19:36:03;;;;;;;;;;;8.40;53.10;;;;;;5028120;28;87720;-55
2022/03/23 19:38:29;;;;;;;;;;;8.40;52.90;;;;;;5027045;28;87429;-54
2022/03/23 19:40:54;;;;;;;;;;;8.40;52.90;;;;;;5029357;28;87027;-55
2022/03/23 19:43:20;;;;;;;;;;;8.40;53.10;;;;;;5025764;28;88572;-54
2022/03/23 19:45:47;;;;;;;;;;;8.40;53.10;;;;;;5027250;28;86889;-54
2022/03/23 19:48:13;;;;;;;;;;;8.40;53.10;;;;;;5027466;28;87952;-52
2022/03/23 19:50:39;;;;;;;;;;;8.40;53.10;;;;;;5027057;28;87663;-54
2022/03/23 19:53:05;;;;;;;;;;;8.40;53.00;;;;;;5027325;28;86867;-53
2022/03/23 19:55:30;;;;;;;;;;;8.40;53.20;;;;;;5027366;28;87864;-52
2022/03/23 19:57:56;;;;;;;;;;;8.40;53.20;;;;;;5026813;28;88971;-54
2022/03/23 20:00:22;;;;;;;;;;;8.40;52.90;;;;;;5028453;28;86243;-51
2022/03/23 20:02:48;;;;;;;;;;;8.30;52.80;;;;;;5026300;28;88389;-53
2022/03/23 20:05:15;;;;;;;;;;;8.30;52.90;;;;;;5026466;28;87040;-51
2022/03/23 20:07:40;;;;;;;;;;;8.30;53.00;;;;;;5026381;28;88030;-53
2022/03/23 20:10:08;;;;;;;;;;;8.30;53.10;;;;;;5026649;28;88525;-53
2022/03/23 20:12:34;;;;;;;;;;;8.30;53.10;;;;;;5027304;28;87244;-51
2022/03/23 20:14:59;;;;;;;;;;;8.30;53.10;;;;;;5027353;28;86786;-52
2022/03/23 20:17:25;;;;;;;;;;;8.30;53.30;;;;;;5026549;28;88935;-53
2022/03/23 20:19:50;;;;;;;;;;;8.30;53.20;;;;;;5027266;28;86890;-53
2022/03/23 20:22:16;;;;;;;;;;;8.30;53.30;;;;;;5029607;28;86831;-53
2022/03/23 20:24:41;;;;;;;;;;;8.30;53.30;;;;;;5027219;28;86106;-53
2022/03/23 20:27:07;;;;;;;;;;;8.30;53.40;;;;;;5026962;28;86809;-51
2022/03/23 20:29:33;;;;;;;;;;;8.30;53.40;;;;;;5027165;28;87389;-51
2022/03/23 20:31:59;;;;;;;;;;;8.30;53.30;;;;;;5026839;28;87803;-52
2022/03/23 20:34:24;;;;;;;;;;;8.30;53.30;;;;;;5027082;28;89057;-51
2022/03/23 20:36:50;;;;;;;;;;;8.30;53.40;;;;;;5027064;28;87392;-52
2022/03/23 20:39:16;;;;;;;;;;;8.20;53.30;;;;;;5027453;28;86860;-51
2022/03/23 20:41:41;;;;;;;;;;;8.20;53.40;;;;;;5027072;28;88011;-52
2022/03/23 20:44:08;;;;;;;;;;;8.20;53.50;;;;;;5029889;28;87501;-51
2022/03/23 20:46:34;;;;;;;;;;;8.20;53.40;;;;;;5026997;28;87829;-51
2022/03/23 20:49:02;;;;;;;;;;;8.20;53.50;;;;;;5027074;28;86917;-51
2022/03/23 20:51:28;;;;;;;;;;;8.20;53.40;;;;;;5026894;28;86898;-52
2022/03/23 20:53:54;;;;;;;;;;;8.20;53.50;;;;;;5026710;28;87610;-51
2022/03/23 20:56:21;;;;;;;;;;;8.20;53.50;;;;;;5025880;28;88334;-52
2022/03/23 20:58:47;;;;;;;;;;;8.20;53.30;;;;;;5026915;28;87137;-51
2022/03/23 21:01:13;;;;;;;;;;;8.20;53.50;;;;;;5024766;28;88018;-51
2022/03/23 21:03:38;;;;;;;;;;;8.20;54.10;;;;;;5026625;28;87476;-51
2022/03/23 21:06:07;;;;;;;;;;;8.20;53.50;;;;;;5027570;28;86998;-51
2022/03/23 21:08:36;;;;;;;;;;;8.20;53.40;;;;;;5026264;28;87707;-51
2022/03/23 21:11:03;;;;;;;;;;;8.20;53.40;;;;;;5026700;28;86904;-51
2022/03/23 21:13:30;;;;;;;;;;;8.10;53.60;;;;;;5024841;28;87970;-53
2022/03/23 21:15:56;;;;;;;;;;;8.20;53.50;;;;;;5026073;28;88566;-52
2022/03/23 21:18:22;;;;;;;;;;;8.20;53.50;;;;;;5026504;28;86900;-51
2022/03/23 21:20:48;;;;;;;;;;;8.20;53.50;;;;;;5026295;28;87772;-52
2022/03/23 21:23:15;;;;;;;;;;;8.10;53.70;;;;;;5026082;28;88389;-52
2022/03/23 21:25:41;;;;;;;;;;;8.10;53.40;;;;;;5026717;28;86841;-52
2022/03/23 21:28:07;;;;;;;;;;;8.10;53.50;;;;;;5028868;28;88083;-52
2022/03/23 21:30:33;;;;;;;;;;;8.10;53.50;;;;;;5026280;28;87030;-51
2022/03/23 21:32:59;;;;;;;;;;;8.10;53.50;;;;;;5026635;28;87018;-56
2022/03/23 21:35:25;;;;;;;;;;;8.10;53.60;;;;;;5025937;28;87565;-52
2022/03/23 21:37:52;;;;;;;;;;;8.10;53.70;;;;;;5024228;28;86248;-52
2022/03/23 21:40:18;;;;;;;;;;;8.10;53.60;;;;;;5026244;28;87129;-51
2022/03/23 21:42:44;;;;;;;;;;;8.10;53.80;;;;;;5025845;28;88524;-51
2022/03/23 21:45:11;;;;;;;;;;;8.00;53.70;;;;;;5025642;28;87747;-51
2022/03/23 21:47:41;;;;;;;;;;;8.00;53.70;;;;;;5024681;28;89026;-51
2022/03/23 21:50:08;;;;;;;;;;;8.00;53.70;;;;;;5028666;28;87766;-51
2022/03/23 21:52:35;;;;;;;;;;;8.00;53.90;;;;;;5026180;28;87970;-51
2022/03/23 21:55:01;;;;;;;;;;;8.00;53.90;;;;;;5025892;28;87481;-52
2022/03/23 21:57:27;;;;;;;;;;;8.00;53.90;;;;;;5026203;28;86909;-52
2022/03/23 21:59:52;;;;;;;;;;;8.00;53.70;;;;;;5026289;28;86924;-52
2022/03/23 22:02:18;;;;;;;;;;;8.00;53.70;;;;;;5023286;28;86869;-51
2022/03/23 22:04:43;;;;;;;;;;;8.00;53.70;;;;;;5027473;28;86863;-51
2022/03/23 22:07:09;;;;;;;;;;;8.00;53.80;;;;;;5029353;28;87972;-52
2022/03/23 22:09:35;;;;;;;;;;;8.00;53.90;;;;;;5031643;28;87816;-54
2022/03/23 22:12:02;;;;;;;;;;;8.00;53.80;;;;;;5029294;28;88205;-53
2022/03/23 22:14:28;;;;;;;;;;;7.90;53.80;;;;;;5028974;28;87535;-51
2022/03/23 22:16:53;;;;;;;;;;;7.90;53.90;;;;;;5029679;28;86849;-53
2022/03/23 22:19:19;;;;;;;;;;;7.90;54.00;;;;;;5029627;28;87054;-51
2022/03/23 22:21:44;;;;;;;;;;;7.90;53.90;;;;;;5028878;28;87569;-52
2022/03/23 22:24:10;;;;;;;;;;;7.90;54.00;;;;;;5029290;28;86887;-53
2022/03/23 22:26:36;;;;;;;;;;;7.90;53.90;;;;;;5029998;28;86684;-51
2022/03/23 22:29:02;;;;;;;;;;;7.90;54.00;;;;;;5029043;28;87419;-51
2022/03/23 22:31:27;;;;;;;;;;;7.90;54.00;;;;;;5032091;28;86896;-51
2022/03/23 22:33:53;;;;;;;;;;;7.90;54.10;;;;;;5028168;28;88662;-52
2022/03/23 22:36:19;;;;;;;;;;;7.80;54.00;;;;;;5029082;28;87219;-51
2022/03/23 22:38:44;;;;;;;;;;;7.80;54.20;;;;;;5029162;28;87917;-52
2022/03/23 22:41:10;;;;;;;;;;;7.80;54.10;;;;;;5028539;28;87670;-51
2022/03/23 22:43:36;;;;;;;;;;;7.80;54.20;;;;;;5029016;28;86869;-52
2022/03/23 22:46:03;;;;;;;;;;;7.80;54.20;;;;;;5028746;28;87969;-52
2022/03/23 22:48:29;;;;;;;;;;;7.80;54.20;;;;;;5028580;28;88506;-51
2022/03/23 22:50:54;;;;;;;;;;;7.80;54.20;;;;;;5029646;28;86035;-51
2022/03/23 22:53:21;;;;;;;;;;;7.70;54.10;;;;;;5031552;28;86861;-52
2022/03/23 22:55:49;;;;;;;;;;;7.70;54.20;;;;;;5028857;28;86854;-51
2022/03/23 22:58:17;;;;;;;;;;;7.70;54.20;;;;;;5028080;28;88038;-52
2022/03/23 23:00:44;;;;;;;;;;;7.70;54.20;;;;;;5028303;28;87544;-52
2022/03/23 23:03:10;;;;;;;;;;;7.70;54.20;;;;;;5028524;28;86834;-51
2022/03/23 23:05:36;;;;;;;;;;;7.70;54.20;;;;;;5028630;28;87060;-51
2022/03/23 23:08:02;;;;;;;;;;;7.70;54.20;;;;;;5027987;28;88623;-52
2022/03/23 23:10:29;;;;;;;;;;;7.70;54.20;;;;;;5028724;28;86849;-51
2022/03/23 23:12:55;;;;;;;;;;;7.70;54.20;;;;;;5028472;28;87955;-51
2022/03/23 23:15:21;;;;;;;;;;;7.70;54.20;;;;;;5031816;28;86705;-52
2022/03/23 23:17:47;;;;;;;;;;;7.60;54.30;;;;;;5028483;28;87030;-51
2022/03/23 23:20:13;;;;;;;;;;;7.70;54.30;;;;;;5028168;28;87682;-51
2022/03/23 23:22:39;;;;;;;;;;;7.60;54.20;;;;;;5027702;28;87784;-52
2022/03/23 23:25:06;;;;;;;;;;;7.60;54.20;;;;;;5026112;28;86938;-52
2022/03/23 23:27:40;;;;;;;;;;;7.60;54.30;;;;;;5027751;28;87492;-51
2022/03/23 23:30:10;;;;;;;;;;;7.60;54.30;;;;;;5028315;28;86873;-52
2022/03/23 23:32:36;;;;;;;;;;;7.50;54.20;;;;;;5028169;28;87794;-54